Cape Girardeau, MO

11:23 AM CST on March 01, 2015 (GMT -0600)
Cape Girardeau Regional | Change Station
CLOSE
Current Station
Airport
Location: Cape Girardeau,
Elevation: 341 ft
Nearby Weather Stations
Active Advisory: Winter Weather Advisory

Elev 341 ft 37.23 °N, 89.57 °W | Updated 30 minutes ago

Overcast
Overcast
34 °F
Feels Like 31 °F
N
4
Wind Variable Wind from WNW

Today
High -- | Low -- °F
--% Chance of Precip.
Yesterday
High -- | Low -- °F
Precip. -- in
6:29 AM 5:51 PM
Waxing Gibbous, 86% visible
Pressure 30.38 in
Visibility 6.0 miles
Clouds Mostly Cloudy 2400 ft
Overcast 3700 ft
Windchill 31 °F
Dew Point 30 °F
Humidity 87%
Rainfall 0.14 in
Snow Depth Not available.
UV 2 out of 12
Pollen .80 out of 12
Air Quality Not available.
Flu Activity Not available.
METAR KCGI 011653Z AUTO 30003KT 6SM BR BKN024 OVC037 01/M01 A3038

More Conditions Fewer Conditions

Pressure 30.38 in
Visibility 6.0 miles
Clouds Mostly Cloudy 2400 ft
Overcast 3700 ft
Windchill 31 °F
Dew Point 30 °F
Humidity 87%
Rainfall 0.14 in
Snow Depth Not available.
UV 2 out of 12
Pollen .80 out of 12
Air Quality Not available.
Flu Activity Not available.
METAR KCGI 011653Z AUTO 30003KT 6SM BR BKN024 OVC037 01/M01 A3038

More Conditions Fewer Conditions

10-Day Weather Forecast

Almanac

Astronomy

Mar. 01, 2015 Rise Set
Actual Time
Civil Twilight
Nautical Twilight
Astronomical Twilight
Moon
Length of Visible Light
Length of Day
Tomorrow will be .
, % of the Moon is Illuminated

Today's Extremes

State Highs State Lows

Community

WunderPhotos

Upload Photos

1,801,475 photos uploaded!

WunderBlogs® & News

Nearby

Air Quality

  Air Quality AQ Index Pollutant
Not available.

Snow Depth

Station Depth Elevation

Earthquake Activity

City Distance Mag. Time & Date
Minimum magnitude displayed is 2.5.

Coastal Water Temperatures

Place Temperature

Nearby Weather Stations

Winter Weather Advisory
Statement as of 10:00 AM CST on March 01, 2015

... Winter Weather Advisory remains in effect until noon CST
today...

A Winter Weather Advisory remains in effect until noon CST today.

* Timing... sleet and freezing drizzle will continue across most of
southern Illinois this morning. Freezing drizzle will continue
across the Ozark foothills of southeast Missouri.

* Accumulations... the continuation of light freezing drizzle or
sleet may produce additional minor coatings of ice... especially
along and north of Interstate 64. Elsewhere only a couple of
hundredths of ice accumulation is possible.

* Impacts... hazardous travel conditions are anticipated.

Precautionary/preparedness actions...

A Winter Weather Advisory means that periods of snow... sleet... or
freezing rain will cause travel difficulties. Be prepared for
slippery roads and limited visibilities... and use caution while
driving.



Jp